Time;durP1;ratioP1;P1;durP2;ratioP2;P2;SDS_P1;SDS_P2;PMS_P1;PMS_P2;Temp;Humidity;BMP_temperature;BMP_pressure;BME280_temperature;BME280_humidity;BME280_pressure;Samples;Min_cycle;Max_cycle;Signal;HPM_P1;HPM_P2
2023/03/30 00:01:51;;;;;;;;;;;;;;;9.04;25.22;99392.28;5104709;28;19923;-82
2023/03/30 00:04:17;;;;;;;;;;;;;;;9.04;24.98;99394.88;5102494;28;19920;-82
2023/03/30 00:06:42;;;;;;;;;;;;;;;9.05;25.33;99393.09;5085509;28;19968;-83
2023/03/30 00:09:08;;;;;;;;;;;;;;;9.06;25.28;99389.56;5077657;28;19920;-82
2023/03/30 00:11:34;;;;;;;;;;;;;;;9.06;25.19;99389.56;5085035;28;19920;-83
2023/03/30 00:13:59;;;;;;;;;;;;;;;9.05;25.23;99382.69;5086521;28;19916;-81
2023/03/30 00:16:24;;;;;;;;;;;;;;;9.06;25.08;99381.75;5084237;28;19916;-82
2023/03/30 00:18:50;;;;;;;;;;;;;;;9.04;24.82;99376.66;5076985;28;19920;-81
2023/03/30 00:21:16;;;;;;;;;;;;;;;9.04;24.84;99378.41;5077518;28;19990;-82
2023/03/30 00:23:42;;;;;;;;;;;;;;;9.04;25.04;99379.25;5094852;28;19923;-82
2023/03/30 00:26:07;;;;;;;;;;;;;;;9.02;25.01;99375.88;5076871;28;19916;-82
2023/03/30 00:28:33;;;;;;;;;;;;;;;9.03;25.01;99371.53;5077285;28;19935;-83
2023/03/30 00:30:58;;;;;;;;;;;;;;;9.02;24.91;99378.50;5077284;28;19920;-83
2023/03/30 00:33:24;;;;;;;;;;;;;;;9.02;24.90;99378.50;5077119;28;19973;-83
2023/03/30 00:35:54;;;;;;;;;;;;;;;9.04;24.98;99378.41;5077008;28;19920;-83
2023/03/30 00:38:20;;;;;;;;;;;;;;;9.02;24.96;99386.31;5077157;28;20016;-83
2023/03/30 00:40:55;;;;;;;;;;;;;;;9.03;24.87;99381.97;5077623;28;20401;-80
2023/03/30 00:43:20;;;;;;;;;;;;;;;9.01;24.83;99378.59;5077252;28;19939;-82
2023/03/30 00:45:45;;;;;;;;;;;;;;;9.00;24.56;99377.75;5060273;28;20375;-81
2023/03/30 00:48:18;;;;;;;;;;;;;;;8.99;24.71;99378.69;5077025;28;19916;-81
2023/03/30 00:50:48;;;;;;;;;;;;;;;8.96;24.86;99380.63;5095184;28;19920;-82
2023/03/30 00:53:16;;;;;;;;;;;;;;;8.94;24.85;99385.94;5076892;28;19943;-82
2023/03/30 00:55:41;;;;;;;;;;;;;;;8.93;24.86;99386.84;5077187;28;19916;-81
2023/03/30 00:58:08;;;;;;;;;;;;;;;8.91;25.01;99391.31;5076952;28;20410;-82
2023/03/30 01:00:37;;;;;;;;;;;;;;;8.89;24.88;99395.78;5059244;28;19919;-81
2023/03/30 01:03:03;;;;;;;;;;;;;;;8.87;24.79;99395.88;5060362;28;19923;-81
2023/03/30 01:05:28;;;;;;;;;;;;;;;8.86;24.63;99395.97;5059969;28;20371;-80
2023/03/30 01:07:56;;;;;;;;;;;;;;;8.85;24.92;99397.72;5076499;28;19926;-80
2023/03/30 01:10:22;;;;;;;;;;;;;;;8.84;24.87;99398.66;5077059;28;20298;-81
2023/03/30 01:12:48;;;;;;;;;;;;;;;8.82;24.93;99403.13;5075765;28;19916;-80
2023/03/30 01:15:15;;;;;;;;;;;;;;;8.80;24.76;99404.13;5076533;28;20031;-81
2023/03/30 01:17:48;;;;;;;;;;;;;;;8.79;25.00;99407.66;5094656;28;20005;-81
2023/03/30 01:20:32;;;;;;;;;;;;;;;8.75;25.10;99407.00;5076559;28;19920;-81
2023/03/30 01:23:17;;;;;;;;;;;;;;;8.71;25.18;99402.88;5076250;28;19916;-81
2023/03/30 01:25:55;;;;;;;;;;;;;;;8.68;25.29;99411.72;5094827;28;20341;-82
2023/03/30 01:28:24;;;;;;;;;;;;;;;8.66;25.44;99400.53;5094258;28;19931;-82
2023/03/30 01:30:55;;;;;;;;;;;;;;;8.65;25.63;99408.44;5075302;28;20268;-82
2023/03/30 01:33:27;;;;;;;;;;;;;;;8.62;25.68;99406.88;5092868;28;19916;-82
2023/03/30 01:35:52;;;;;;;;;;;;;;;8.61;25.24;99409.56;5092511;28;19968;-81
2023/03/30 01:38:27;;;;;;;;;;;;;;;8.58;25.43;99414.94;5093356;28;19942;-82
2023/03/30 01:41:00;;;;;;;;;;;;;;;8.56;25.03;99411.59;5058560;28;19916;-82
2023/03/30 01:43:34;;;;;;;;;;;;;;;8.54;25.39;99410.81;5059387;28;19920;-82
2023/03/30 01:46:11;;;;;;;;;;;;;;;8.53;25.39;99410.00;5076362;28;20342;-82
2023/03/30 01:48:44;;;;;;;;;;;;;;;8.49;25.08;99416.28;5093714;28;19985;-82
2023/03/30 01:51:36;;;;;;;;;;;;;;;8.48;25.39;99412.03;5059241;28;20288;-82
2023/03/30 01:54:04;;;;;;;;;;;;;;;8.45;25.73;99420.00;5090872;28;20309;-82
2023/03/30 01:56:38;;;;;;;;;;;;;;;8.42;25.64;99420.97;5059174;28;19916;-82
2023/03/30 01:59:06;;;;;;;;;;;;;;;8.40;25.41;99417.63;5059180;28;20153;-82
2023/03/30 02:01:32;;;;;;;;;;;;;;;8.37;25.81;99423.00;5075741;28;19943;-82
2023/03/30 02:03:57;;;;;;;;;;;;;;;8.35;25.58;99419.66;5075693;28;19974;-82
2023/03/30 02:06:24;;;;;;;;;;;;;;;8.33;26.04;99419.75;5058694;28;19939;-82
2023/03/30 02:08:50;;;;;;;;;;;;;;;8.32;25.94;99422.44;5075706;28;20414;-82
2023/03/30 02:11:15;;;;;;;;;;;;;;;8.31;25.86;99421.56;5075128;28;19917;-82
2023/03/30 02:13:40;;;;;;;;;;;;;;;8.30;25.94;99414.72;5075430;28;20414;-82
2023/03/30 02:16:07;;;;;;;;;;;;;;;8.29;26.12;99428.63;5075537;28;19923;-82
2023/03/30 02:18:33;;;;;;;;;;;;;;;8.29;25.73;99422.59;5058682;28;19916;-81
2023/03/30 02:21:00;;;;;;;;;;;;;;;8.26;25.87;99417.56;5058630;28;19974;-82
2023/03/30 02:23:27;;;;;;;;;;;;;;;8.21;25.91;99419.59;5075587;28;19916;-82
2023/03/30 02:25:52;;;;;;;;;;;;;;;8.20;26.16;99428.31;5058575;28;19952;-82
2023/03/30 02:28:17;;;;;;;;;;;;;;;8.17;26.32;99431.09;5073768;28;20009;-81
2023/03/30 02:30:43;;;;;;;;;;;;;;;8.12;26.16;99423.53;5074829;28;19970;-81
2023/03/30 02:33:31;;;;;;;;;;;;;;;8.11;26.31;99429.66;5058510;28;20003;-81
2023/03/30 02:36:04;;;;;;;;;;;;;;;8.08;26.05;99430.66;5084591;28;19923;-81
2023/03/30 02:38:50;;;;;;;;;;;;;;;8.04;26.34;99430.91;5075569;28;20019;-81
2023/03/30 02:41:42;;;;;;;;;;;;;;;8.00;26.20;99435.47;5030254;28;19925;-80
2023/03/30 02:44:25;;;;;;;;;;;;;;;7.97;26.53;99439.06;4965879;28;20413;-80
2023/03/30 02:46:51;;;;;;;;;;;;;;;7.96;26.45;99436.53;4968461;28;19918;-80
2023/03/30 02:49:18;;;;;;;;;;;;;;;7.94;26.29;99436.63;4955572;28;19929;-80
2023/03/30 02:51:44;;;;;;;;;;;;;;;7.93;25.83;99431.50;4939887;28;20013;-81
2023/03/30 02:54:15;;;;;;;;;;;;;;;7.94;26.51;99428.00;4955695;28;20509;-81
2023/03/30 02:56:59;;;;;;;;;;;;;;;7.93;26.28;99431.50;4972058;28;20008;-80
2023/03/30 02:59:26;;;;;;;;;;;;;;;7.92;26.47;99429.81;4972284;28;19971;-81
2023/03/30 03:01:53;;;;;;;;;;;;;;;7.92;26.35;99430.66;4956141;28;19918;-82
2023/03/30 03:04:18;;;;;;;;;;;;;;;7.92;26.57;99432.41;4955684;28;20005;-82
2023/03/30 03:06:44;;;;;;;;;;;;;;;7.92;26.33;99435.00;4939719;28;20073;-82
2023/03/30 03:09:09;;;;;;;;;;;;;;;7.90;26.50;99431.66;4956390;28;19918;-81
2023/03/30 03:11:34;;;;;;;;;;;;;;;7.87;26.43;99435.25;4940615;28;20010;-81
2023/03/30 03:14:00;;;;;;;;;;;;;;;7.85;26.74;99436.28;4939712;28;20346;-82
2023/03/30 03:16:25;;;;;;;;;;;;;;;7.86;26.58;99438.78;4955877;28;19918;-83
2023/03/30 03:18:51;;;;;;;;;;;;;;;7.83;26.19;99435.50;5013800;28;20416;-83
2023/03/30 03:21:16;;;;;;;;;;;;;;;7.83;26.66;99440.69;5071405;28;20014;-83
2023/03/30 03:23:42;;;;;;;;;;;;;;;7.84;26.73;99442.38;5077121;28;19981;-83
2023/03/30 03:26:07;;;;;;;;;;;;;;;7.82;27.34;99441.66;5061971;28;19924;-81
2023/03/30 03:28:32;;;;;;;;;;;;;;;7.83;27.41;99440.69;5072844;28;19930;-81
2023/03/30 03:30:58;;;;;;;;;;;;;;;7.81;26.63;99447.75;5080621;28;19984;-81
2023/03/30 03:33:24;;;;;;;;;;;;;;;7.82;26.57;99450.28;5065748;28;19924;-83
2023/03/30 03:35:52;;;;;;;;;;;;;;;7.82;27.00;99449.44;5079010;28;19965;-73
2023/03/30 03:38:18;;;;;;;;;;;;;;;7.93;44.15;99467.91;5061902;28;19917;-77
2023/03/30 03:40:43;;;;;;;;;;;;;;;8.61;58.54;99466.81;5106044;28;19926;-80
2023/03/30 03:43:08;;;;;;;;;;;;;;;8.57;45.48;99457.50;5081802;28;20515;-81
2023/03/30 03:45:34;;;;;;;;;;;;;;;8.52;44.93;99460.34;5081657;28;19915;-84
2023/03/30 03:47:59;;;;;;;;;;;;;;;8.51;42.10;99459.53;5081581;28;19915;-85
2023/03/30 03:50:25;;;;;;;;;;;;;;;8.45;41.26;99467.66;5098308;28;19916;-83
2023/03/30 03:52:50;;;;;;;;;;;;;;;8.40;38.60;99472.28;5081785;28;19916;-85
2023/03/30 03:55:15;;;;;;;;;;;;;;;8.35;36.98;99471.69;5081386;28;19916;-79
2023/03/30 03:57:43;;;;;;;;;;;;;;;8.31;35.37;99472.78;5080983;28;19916;-79
2023/03/30 04:00:14;;;;;;;;;;;;;;;8.28;34.46;99483.34;5116765;28;19922;-81
2023/03/30 04:02:42;;;;;;;;;;;;;;;8.26;33.13;99482.59;5081172;28;20539;-80
2023/03/30 04:05:08;;;;;;;;;;;;;;;8.22;32.69;99484.50;5080248;28;19923;-80
2023/03/30 04:07:34;;;;;;;;;;;;;;;8.20;31.58;99483.75;5097479;28;19923;-82
2023/03/30 04:10:00;;;;;;;;;;;;;;;8.18;31.22;99484.78;5097720;28;20375;-82
2023/03/30 04:12:27;;;;;;;;;;;;;;;8.40;29.87;99494.84;5116149;28;19915;-80
2023/03/30 04:14:52;;;;;;;;;;;;;;;9.10;28.30;99502.22;5098209;28;19919;-83
2023/03/30 04:17:17;;;;;;;;;;;;;;;9.85;27.36;99496.91;5097776;28;19922;-81
2023/03/30 04:19:44;;;;;;;;;;;;;;;10.53;25.80;99506.63;5080886;28;20026;-82
2023/03/30 04:22:12;;;;;;;;;;;;;;;11.32;24.64;99504.97;5116095;28;20401;-82
2023/03/30 04:24:37;;;;;;;;;;;;;;;12.13;23.59;99506.41;5077590;28;19963;-82
2023/03/30 04:27:03;;;;;;;;;;;;;;;12.98;22.07;99508.19;5062250;28;19955;-82
2023/03/30 04:29:28;;;;;;;;;;;;;;;13.83;21.03;99514.91;5077573;28;19931;-83
2023/03/30 04:31:55;;;;;;;;;;;;;;;14.61;19.53;99510.56;5078323;28;19920;-83
2023/03/30 04:34:20;;;;;;;;;;;;;;;15.36;18.72;99514.03;5095564;28;19974;-82
2023/03/30 04:36:49;;;;;;;;;;;;;;;16.03;17.79;99519.81;5060894;28;19916;-82
2023/03/30 04:39:17;;;;;;;;;;;;;;;16.67;17.08;99522.19;5077295;28;20280;-85
2023/03/30 04:41:44;;;;;;;;;;;;;;;17.26;16.22;99531.00;5077683;28;19947;-80
2023/03/30 04:44:10;;;;;;;;;;;;;;;17.79;15.93;99534.88;5061224;28;19916;-79
2023/03/30 04:46:35;;;;;;;;;;;;;;;18.23;15.43;99522.81;5077390;28;19927;-84
2023/03/30 04:49:00;;;;;;;;;;;;;;;18.69;14.85;99535.16;5095543;28;19986;-77
2023/03/30 04:51:26;;;;;;;;;;;;;;;19.42;31.51;99536.81;5079921;28;19916;-79
2023/03/30 04:53:51;;;;;;;;;;;;;;;20.02;19.34;99542.19;5085317;28;19916;-80
2023/03/30 04:56:16;;;;;;;;;;;;;;;20.51;17.49;99541.56;5060254;28;19916;-80
2023/03/30 04:58:42;;;;;;;;;;;;;;;20.99;15.64;99535.69;5076938;28;20010;-80
2023/03/30 05:01:07;;;;;;;;;;;;;;;21.50;17.06;99539.84;5077570;28;20007;-82
2023/03/30 05:03:33;;;;;;;;;;;;;;;21.72;15.00;99539.31;5059885;28;19916;-80
2023/03/30 05:05:58;;;;;;;;;;;;;;;21.90;14.03;99534.63;5060044;28;19916;-81
2023/03/30 05:08:23;;;;;;;;;;;;;;;22.09;13.18;99533.41;5059960;28;19924;-80
2023/03/30 05:10:49;;;;;;;;;;;;;;;22.39;13.02;99538.94;5060741;28;19974;-81
2023/03/30 05:13:14;;;;;;;;;;;;;;;22.74;12.66;99536.75;5076877;28;19920;-79
2023/03/30 05:15:40;;;;;;;;;;;;;;;23.01;12.26;99527.41;5076915;28;19972;-78
2023/03/30 05:18:05;;;;;;;;;;;;;;;23.37;12.09;99532.13;5077312;28;20341;-82
2023/03/30 05:20:31;;;;;;;;;;;;;;;23.81;11.83;99534.00;5076909;28;20448;-80
2023/03/30 05:22:56;;;;;;;;;;;;;;;23.94;11.40;99541.41;5059381;28;20375;-80
2023/03/30 05:25:21;;;;;;;;;;;;;;;24.14;11.19;99535.50;5059470;28;20011;-70
2023/03/30 05:27:46;;;;;;;;;;;;;;;24.68;23.32;99547.66;5059162;28;19924;-68
2023/03/30 05:30:12;;;;;;;;;;;;;;;24.90;22.84;99543.16;5094400;28;19916;-74
2023/03/30 05:32:37;;;;;;;;;;;;;;;25.23;15.48;99543.44;5076557;28;19916;-75
2023/03/30 05:35:03;;;;;;;;;;;;;;;25.05;13.21;99543.91;5059030;28;19967;-76
2023/03/30 05:37:28;;;;;;;;;;;;;;;25.15;12.67;99550.78;5094107;28;19982;-75
2023/03/30 05:39:53;;;;;;;;;;;;;;;25.18;11.97;99553.88;5094451;28;19923;-74
2023/03/30 05:42:19;;;;;;;;;;;;;;;25.28;16.67;99542.91;5059290;28;19916;-73
2023/03/30 05:44:44;;;;;;;;;;;;;;;25.45;15.67;99548.81;5076262;28;19916;-75
2023/03/30 05:47:10;;;;;;;;;;;;;;;25.85;21.56;99557.06;5093625;28;19920;-75
2023/03/30 05:49:35;;;;;;;;;;;;;;;26.49;22.05;99555.16;5059501;28;19920;-78
2023/03/30 05:52:00;;;;;;;;;;;;;;;26.74;18.56;99554.63;5076137;28;19982;-75
2023/03/30 05:54:26;;;;;;;;;;;;;;;27.03;20.50;99559.63;5093986;28;20364;-77
2023/03/30 05:56:52;;;;;;;;;;;;;;;27.28;19.91;99553.69;5076588;28;19916;-72
2023/03/30 05:59:18;;;;;;;;;;;;;;;27.42;20.82;99557.19;5075911;28;19916;-75
2023/03/30 06:01:44;;;;;;;;;;;;;;;27.64;20.16;99565.00;5059028;28;19924;-72
2023/03/30 06:04:09;;;;;;;;;;;;;;;27.71;20.41;99563.97;5075354;28;19916;-72
2023/03/30 06:06:35;;;;;;;;;;;;;;;27.88;20.73;99569.72;5066791;28;20384;-77
2023/03/30 06:09:01;;;;;;;;;;;;;;;28.00;20.18;99575.28;5095250;28;19922;-75
2023/03/30 06:11:27;;;;;;;;;;;;;;;28.02;19.95;99570.53;5078906;28;20348;-73
2023/03/30 06:13:53;;;;;;;;;;;;;;;28.02;18.88;99575.09;5095802;28;19920;-75
2023/03/30 06:16:18;;;;;;;;;;;;;;;28.02;19.16;99569.72;5078515;28;20309;-74
2023/03/30 06:18:43;;;;;;;;;;;;;;;27.73;14.60;99572.63;5078657;28;19920;-74
2023/03/30 06:21:09;;;;;;;;;;;;;;;27.46;15.61;99581.75;5078528;28;19916;-74
2023/03/30 06:23:35;;;;;;;;;;;;;;;27.15;14.36;99583.13;5095193;28;20298;-75
2023/03/30 06:26:02;;;;;;;;;;;;;;;27.00;14.59;99588.69;5096018;28;19916;-75
2023/03/30 06:28:27;;;;;;;;;;;;;;;26.81;15.62;99593.78;5095688;28;20022;-75
2023/03/30 06:30:52;;;;;;;;;;;;;;;27.06;22.43;99594.06;5078789;28;20383;-76
2023/03/30 06:33:18;;;;;;;;;;;;;;;27.31;22.58;99595.34;5078481;28;19962;-76
2023/03/30 06:35:45;;;;;;;;;;;;;;;27.42;21.97;99600.09;5078006;28;19920;-77
2023/03/30 06:38:12;;;;;;;;;;;;;;;27.54;20.55;99606.47;5096010;28;19915;-75
2023/03/30 06:40:37;;;;;;;;;;;;;;;27.39;19.57;99603.16;5078052;28;19920;-75
2023/03/30 06:43:02;;;;;;;;;;;;;;;27.59;18.93;99601.31;5095564;28;19916;-74
2023/03/30 06:45:28;;;;;;;;;;;;;;;27.51;19.29;99606.06;5077940;28;20298;-76
2023/03/30 06:47:53;;;;;;;;;;;;;;;27.58;18.55;99606.91;5096199;28;19923;-76
2023/03/30 06:50:18;;;;;;;;;;;;;;;27.59;18.65;99597.81;5095197;28;19919;-77
2023/03/30 06:52:44;;;;;;;;;;;;;;;27.71;18.39;99595.34;5098938;28;19969;-75
2023/03/30 06:55:10;;;;;;;;;;;;;;;27.75;18.42;99602.78;5080484;28;19973;-75
2023/03/30 06:57:35;;;;;;;;;;;;;;;27.79;18.08;99603.16;5078866;28;19947;-74
2023/03/30 07:00:00;;;;;;;;;;;;;;;27.86;17.92;99612.03;5114151;28;19920;-75
2023/03/30 07:02:26;;;;;;;;;;;;;;;27.78;16.76;99610.41;5094790;28;19918;-76
2023/03/30 07:04:51;;;;;;;;;;;;;;;27.82;17.94;99608.13;5095262;28;19916;-76
2023/03/30 07:07:16;;;;;;;;;;;;;;;27.80;16.68;99602.16;5077956;28;20386;-75
2023/03/30 07:09:42;;;;;;;;;;;;;;;27.82;16.01;99608.13;5095183;28;20355;-76
2023/03/30 07:12:07;;;;;;;;;;;;;;;27.96;17.11;99614.31;5077529;28;20429;-75
2023/03/30 07:14:32;;;;;;;;;;;;;;;28.04;17.14;99607.88;5113750;28;19923;-74
2023/03/30 07:16:58;;;;;;;;;;;;;;;28.20;17.11;99612.00;5113103;28;19972;-77
2023/03/30 07:19:23;;;;;;;;;;;;;;;28.40;16.61;99603.88;5095041;28;19920;-75
2023/03/30 07:21:48;;;;;;;;;;;;;;;28.67;16.88;99602.75;5094631;28;20014;-72
2023/03/30 07:24:14;;;;;;;;;;;;;;;29.05;15.58;99604.59;5094735;28;20405;-70
2023/03/30 07:26:39;;;;;;;;;;;;;;;29.48;13.75;99597.69;5094233;28;19923;-73
2023/03/30 07:29:05;;;;;;;;;;;;;;;30.04;13.70;99600.50;5077986;28;19924;-69
2023/03/30 16:26:22;;;;;;;;;;;;;;;16.36;22.11;99098.94;5559187;23;20430;-80
2023/03/30 16:28:51;;;;;;;;;;;;;;;16.30;22.18;99094.25;4985424;28;19961;-83
2023/03/30 16:31:17;;;;;;;;;;;;;;;16.25;21.88;99096.47;4977789;28;20060;-82
2023/03/30 16:33:43;;;;;;;;;;;;;;;16.21;21.68;99092.50;4994068;28;19925;-80
2023/03/30 16:36:10;;;;;;;;;;;;;;;16.13;21.66;99092.38;4978032;28;19973;-82
2023/03/30 16:38:36;;;;;;;;;;;;;;;16.06;21.51;99092.13;4978155;28;19922;-78
2023/03/30 16:41:01;;;;;;;;;;;;;;;16.01;21.54;99097.81;4994605;28;20324;-79
2023/03/30 16:43:26;;;;;;;;;;;;;;;15.96;21.77;99091.31;4994315;28;19941;-80
2023/03/30 16:45:52;;;;;;;;;;;;;;;15.92;21.62;99088.13;4977461;28;19981;-78
2023/03/30 16:48:17;;;;;;;;;;;;;;;15.87;21.81;99087.75;4995733;28;19961;-78
2023/03/30 16:50:48;;;;;;;;;;;;;;;15.82;22.03;99090.78;4994201;28;20045;-78
2023/03/30 16:53:14;;;;;;;;;;;;;;;15.78;22.40;99083.31;4978039;28;19922;-79
2023/03/30 16:55:39;;;;;;;;;;;;;;;15.74;22.68;99088.00;4995151;28;19976;-80
2023/03/30 16:58:05;;;;;;;;;;;;;;;15.68;23.28;99089.41;4995301;28;19924;-84
2023/03/30 17:00:31;;;;;;;;;;;;;;;15.61;23.51;99092.72;4996353;28;20000;-79
2023/03/30 17:02:57;;;;;;;;;;;;;;;15.54;23.79;99098.56;4973052;28;19918;-80
2023/03/30 17:05:22;;;;;;;;;;;;;;;15.48;24.06;99088.59;4978162;28;19922;-82
2023/03/30 17:07:47;;;;;;;;;;;;;;;15.42;24.19;99097.06;4995542;28;19918;-84
2023/03/30 17:10:16;;;;;;;;;;;;;;;15.36;24.40;99098.44;4994649;28;20013;-85
2023/03/30 17:12:41;;;;;;;;;;;;;;;15.33;24.52;99101.34;4995494;28;19929;-83
2023/03/30 17:15:07;;;;;;;;;;;;;;;15.30;24.72;99096.34;4978469;28;20308;-81
2023/03/30 17:17:32;;;;;;;;;;;;;;;15.25;24.79;99105.63;4976975;28;19925;-80
2023/03/30 17:19:58;;;;;;;;;;;;;;;15.19;25.00;99105.19;4994898;28;20012;-81
2023/03/30 17:22:24;;;;;;;;;;;;;;;15.15;24.94;99114.34;4993141;28;20347;-79
2023/03/30 17:24:49;;;;;;;;;;;;;;;15.12;25.01;99119.06;4993617;28;20355;-80
2023/03/30 17:27:15;;;;;;;;;;;;;;;15.08;25.19;99112.41;4995817;28;19995;-81
2023/03/30 17:29:40;;;;;;;;;;;;;;;15.04;25.06;99118.88;4980740;28;20009;-81
2023/03/30 17:32:10;;;;;;;;;;;;;;;14.99;25.02;99127.19;4994891;28;20316;-81
2023/03/30 17:34:36;;;;;;;;;;;;;;;14.94;25.19;99126.75;4982973;28;19984;-85
2023/03/30 17:37:01;;;;;;;;;;;;;;;14.91;25.18;99133.13;4996471;28;19917;-81
2023/03/30 17:39:26;;;;;;;;;;;;;;;14.87;25.17;99137.00;4995747;28;19925;-83
2023/03/30 17:41:52;;;;;;;;;;;;;;;14.84;25.27;99142.50;4979749;28;19940;-82
2023/03/30 17:44:17;;;;;;;;;;;;;;;14.81;25.38;99133.09;4994828;28;20308;-82
2023/03/30 17:46:43;;;;;;;;;;;;;;;14.81;25.29;99129.66;4991930;28;20354;-82
2023/03/30 17:49:13;;;;;;;;;;;;;;;14.76;25.69;99139.72;4976249;28;20064;-82
2023/03/30 17:51:38;;;;;;;;;;;;;;;14.71;25.62;99132.25;4960048;28;19960;-81
2023/03/30 17:54:05;;;;;;;;;;;;;;;14.69;25.49;99138.59;4975586;28;20258;-82
2023/03/30 17:56:31;;;;;;;;;;;;;;;14.66;25.43;99131.81;5007920;28;19937;-86
2023/03/30 17:58:56;;;;;;;;;;;;;;;14.64;25.66;99142.47;4964165;28;19914;-84
2023/03/30 18:01:21;;;;;;;;;;;;;;;14.64;25.62;99137.22;4999235;28;19921;-84
2023/03/30 18:03:47;;;;;;;;;;;;;;;14.62;25.71;99139.13;4981249;28;19913;-80
2023/03/30 18:06:12;;;;;;;;;;;;;;;14.62;25.73;99148.81;4995347;28;19922;-80
2023/03/30 18:08:38;;;;;;;;;;;;;;;14.57;25.66;99140.47;4995956;28;19968;-80
2023/03/30 18:11:03;;;;;;;;;;;;;;;14.55;25.54;99151.09;4987082;28;19949;-84
2023/03/30 18:13:29;;;;;;;;;;;;;;;14.53;25.77;99152.19;4984409;28;20403;-82
2023/03/30 18:15:55;;;;;;;;;;;;;;;14.49;25.78;99156.88;4960480;28;20304;-78
2023/03/30 18:18:24;;;;;;;;;;;;;;;14.47;25.79;99150.94;4979214;28;19986;-87
2023/03/30 18:20:50;;;;;;;;;;;;;;;14.44;25.83;99149.41;4989115;28;20142;-82
2023/03/30 18:23:15;;;;;;;;;;;;;;;14.46;25.95;99146.66;4993216;28;19918;-79
2023/03/30 18:25:42;;;;;;;;;;;;;;;14.42;26.04;99132.94;4973979;28;20032;-79
2023/03/30 18:28:20;;;;;;;;;;;;;;;14.44;26.47;99141.53;4976078;28;19918;-79
2023/03/30 18:30:45;;;;;;;;;;;;;;;14.44;26.34;99132.81;4962183;28;19921;-89
2023/03/30 18:33:11;;;;;;;;;;;;;;;14.39;26.21;99130.59;4983506;28;19940;-90
2023/03/30 18:35:36;;;;;;;;;;;;;;;14.37;26.08;99131.66;4969139;28;20073;-86
2023/03/30 18:38:02;;;;;;;;;;;;;;;14.36;25.78;99133.47;4963193;28;19918;-85
2023/03/30 18:40:28;;;;;;;;;;;;;;;14.36;25.69;99133.47;4970924;28;19943;-89
2023/03/30 18:42:53;;;;;;;;;;;;;;;14.34;25.61;99134.56;5014576;28;19980;-81
2023/03/30 18:45:20;;;;;;;;;;;;;;;14.33;25.85;99135.50;4999923;28;19956;-84
2023/03/30 18:47:45;;;;;;;;;;;;;;;14.30;25.56;99128.75;4979361;28;19926;-83
2023/03/30 18:50:12;;;;;;;;;;;;;;;14.27;25.71;99124.56;4999332;28;20405;-91
2023/03/30 18:52:37;;;;;;;;;;;;;;;14.25;25.51;99120.44;4985970;28;19918;-84
2023/03/30 18:55:02;;;;;;;;;;;;;;;14.21;25.39;99130.34;4979102;28;19940;-81
2023/03/30 18:57:28;;;;;;;;;;;;;;;14.20;25.19;99122.59;4978379;28;19917;-81
2023/03/30 18:59:53;;;;;;;;;;;;;;;14.15;25.25;99120.38;4994886;28;19960;-82
2023/03/30 19:02:18;;;;;;;;;;;;;;;14.11;25.32;99124.22;4978725;28;19924;-82
2023/03/30 19:04:43;;;;;;;;;;;;;;;14.07;25.13;99121.03;4996549;28;19917;-91
2023/03/30 19:07:09;;;;;;;;;;;;;;;14.04;25.30;99113.44;4979921;28;19917;-86
2023/03/30 19:09:34;;;;;;;;;;;;;;;14.00;25.25;99122.50;4994522;28;19925;-83
2023/03/30 19:11:59;;;;;;;;;;;;;;;13.96;25.39;99121.09;4995669;28;20356;-85
2023/03/30 19:14:25;;;;;;;;;;;;;;;13.90;25.40;99117.22;4979711;28;19918;-85
2023/03/30 19:16:50;;;;;;;;;;;;;;;13.88;25.42;99120.91;4980969;28;19925;-91
2023/03/30 19:19:15;;;;;;;;;;;;;;;13.85;25.72;99118.53;4960998;28;19917;-85
2023/03/30 19:21:41;;;;;;;;;;;;;;;13.82;25.62;99119.66;4980300;28;20332;-87
2023/03/30 19:24:07;;;;;;;;;;;;;;;13.79;25.78;99116.44;4982188;28;19921;-87
2023/03/30 19:26:34;;;;;;;;;;;;;;;13.75;25.64;99106.19;4988792;28;19926;-83
2023/03/30 19:28:59;;;;;;;;;;;;;;;13.70;25.57;99103.13;4997183;28;20008;-84
2023/03/30 19:31:24;;;;;;;;;;;;;;;13.67;25.80;99102.56;4975352;28;19964;-83
2023/03/30 19:33:49;;;;;;;;;;;;;;;13.63;25.57;99098.50;4976917;28;19968;-82
2023/03/30 19:36:15;;;;;;;;;;;;;;;13.63;25.60;99106.38;4978405;28;19917;-84
2023/03/30 19:38:42;;;;;;;;;;;;;;;13.59;25.50;99107.63;5012559;28;19918;-83
2023/03/30 19:41:07;;;;;;;;;;;;;;;13.55;25.59;99101.78;4978922;28;19924;-84
2023/03/30 19:43:33;;;;;;;;;;;;;;;13.49;25.50;99092.63;4979270;28;20315;-84
2023/03/30 19:45:58;;;;;;;;;;;;;;;13.48;25.39;99095.38;4994827;28;20346;-84
2023/03/30 19:48:23;;;;;;;;;;;;;;;13.43;25.08;99090.53;4994718;28;19922;-83
2023/03/30 19:50:49;;;;;;;;;;;;;;;13.43;25.18;99094.94;4978630;28;19918;-86
2023/03/30 19:53:14;;;;;;;;;;;;;;;13.41;25.05;99088.97;4995070;28;20008;-84
2023/03/30 19:55:41;;;;;;;;;;;;;;;13.36;25.02;99100.69;4993851;28;19924;-85
2023/03/30 19:58:08;;;;;;;;;;;;;;;13.33;24.74;99100.94;4978827;28;20017;-85
2023/03/30 20:00:34;;;;;;;;;;;;;;;13.35;24.98;99100.81;4979127;28;19922;-87
2023/03/30 20:02:59;;;;;;;;;;;;;;;13.35;24.65;99092.94;4979318;28;19924;-87
2023/03/30 20:05:24;;;;;;;;;;;;;;;13.35;24.76;99096.38;4997054;28;20359;-84
2023/03/30 20:07:50;;;;;;;;;;;;;;;13.36;24.77;99095.44;4979437;28;19918;-86
2023/03/30 20:10:17;;;;;;;;;;;;;;;13.38;24.61;99096.13;4996396;28;19984;-86
2023/03/30 20:12:43;;;;;;;;;;;;;;;13.35;24.69;99098.19;4980486;28;19922;-88
2023/03/30 20:15:08;;;;;;;;;;;;;;;13.35;24.67;99091.16;5002896;28;20008;-86
2023/03/30 20:17:35;;;;;;;;;;;;;;;13.34;24.51;99083.41;4991073;28;20470;-87
2023/03/30 20:20:05;;;;;;;;;;;;;;;13.34;24.62;99086.84;4984147;28;20468;-81
2023/03/30 20:22:31;;;;;;;;;;;;;;;13.33;24.56;99082.59;5000393;28;19924;-86
2023/03/30 20:24:57;;;;;;;;;;;;;;;13.32;24.65;99075.63;4999377;28;19917;-84
2023/03/30 20:27:22;;;;;;;;;;;;;;;13.31;24.48;99071.34;4982836;28;20457;-86
2023/03/30 20:29:47;;;;;;;;;;;;;;;13.31;24.63;99065.28;4982654;28;19999;-86
2023/03/30 20:32:15;;;;;;;;;;;;;;;13.29;24.49;99067.19;4998938;28;19928;-87
2023/03/30 20:34:41;;;;;;;;;;;;;;;13.26;24.75;99067.44;4998951;28;19948;-86
2023/03/30 20:37:06;;;;;;;;;;;;;;;13.23;24.54;99070.31;4982780;28;19917;-86
2023/03/30 20:39:33;;;;;;;;;;;;;;;13.21;24.74;99063.41;4999454;28;19917;-86
2023/03/30 20:42:00;;;;;;;;;;;;;;;13.20;24.53;99074.00;5000498;28;19917;-86
2023/03/30 20:44:29;;;;;;;;;;;;;;;13.18;24.84;99074.13;4982691;28;20375;-85
2023/03/30 20:46:58;;;;;;;;;;;;;;;13.17;24.64;99062.00;4998731;28;20307;-84
2023/03/30 20:49:23;;;;;;;;;;;;;;;13.18;24.74;99076.75;4982597;28;19921;-84
2023/03/30 20:51:52;;;;;;;;;;;;;;;13.18;25.08;99073.31;4999331;28;19924;-87
2023/03/30 20:54:17;;;;;;;;;;;;;;;13.18;24.81;99074.13;4998281;28;19917;-84
2023/03/30 20:56:43;;;;;;;;;;;;;;;13.16;25.03;99073.44;4998392;28;20400;-87
2023/03/30 20:59:08;;;;;;;;;;;;;;;13.15;24.96;99076.19;5016791;28;19918;-86
2023/03/30 21:01:37;;;;;;;;;;;;;;;13.16;24.85;99068.19;4997652;28;20023;-87
2023/03/30 21:04:03;;;;;;;;;;;;;;;13.15;24.95;99057.84;5015753;28;20315;-86
2023/03/30 21:06:28;;;;;;;;;;;;;;;13.16;25.29;99059.50;4997954;28;19918;-87
2023/03/30 21:08:57;;;;;;;;;;;;;;;13.16;25.14;99052.47;5015871;28;20401;-86
2023/03/30 21:11:25;;;;;;;;;;;;;;;13.16;25.34;99052.47;4982366;28;19952;-87
2023/03/30 21:13:50;;;;;;;;;;;;;;;13.17;25.03;99053.28;4981853;28;19968;-86
2023/03/30 21:16:16;;;;;;;;;;;;;;;13.17;24.82;99046.28;4996710;28;19922;-89
2023/03/30 21:18:41;;;;;;;;;;;;;;;13.18;25.05;99039.25;4981340;28;19918;-86
2023/03/30 21:21:06;;;;;;;;;;;;;;;13.19;24.89;99049.59;4981951;28;19999;-84
2023/03/30 21:23:33;;;;;;;;;;;;;;;13.20;25.36;99039.94;5003221;28;19982;-86
2023/03/30 21:26:01;;;;;;;;;;;;;;;13.20;25.05;99042.56;5000025;28;19976;-86
2023/03/30 21:28:27;;;;;;;;;;;;;;;13.18;25.35;99045.31;4981684;28;19960;-86
2023/03/30 21:30:52;;;;;;;;;;;;;;;13.18;25.37;99050.53;4998109;28;19953;-86
2023/03/30 21:33:18;;;;;;;;;;;;;;;13.18;25.33;99042.69;4997238;28;20380;-86
2023/03/30 21:35:46;;;;;;;;;;;;;;;13.17;25.45;99043.66;4997709;28;19922;-83
2023/03/30 21:38:12;;;;;;;;;;;;;;;13.16;25.61;99039.38;4980842;28;20377;-85
2023/03/30 21:40:37;;;;;;;;;;;;;;;13.17;25.42;99034.94;5014852;28;19928;-87
2023/03/30 21:43:02;;;;;;;;;;;;;;;13.19;25.42;99028.63;4981434;28;19917;-86